createdAt,value
2022-10-04T00:02:22.916Z,6.00
2022-10-04T00:05:21.490Z,6.00
2022-10-04T00:08:34.081Z,6.20
2022-10-04T00:11:34.258Z,8.60
2022-10-04T00:14:42.348Z,7.40
2022-10-04T00:17:39.078Z,8.00
2022-10-04T00:20:50.700Z,8.20
2022-10-04T00:23:48.382Z,8.60
2022-10-04T00:26:45.108Z,11.00
2022-10-04T00:29:42.350Z,9.40
2022-10-04T00:32:41.796Z,9.60
2022-10-04T00:35:47.045Z,7.60
2022-10-04T00:38:44.194Z,8.40
2022-10-04T00:41:47.278Z,8.20
2022-10-04T00:44:50.250Z,10.60
2022-10-04T00:47:46.968Z,8.00
2022-10-04T00:50:51.382Z,6.60
2022-10-04T00:53:57.554Z,12.00
2022-10-04T00:57:05.185Z,13.00
2022-10-04T01:00:09.595Z,6.60
2022-10-04T01:03:14.698Z,8.60
2022-10-04T01:06:11.886Z,10.60
2022-10-04T01:09:10.463Z,11.00
2022-10-04T01:12:11.015Z,7.00
2022-10-04T01:15:25.352Z,5.60
2022-10-04T01:18:22.220Z,7.40
2022-10-04T01:21:19.401Z,10.00
2022-10-04T01:24:16.629Z,9.00
2022-10-04T01:27:35.372Z,9.60
2022-10-04T01:30:32.410Z,9.80
2022-10-04T01:33:30.122Z,11.80
2022-10-04T01:36:27.916Z,11.40
2022-10-04T01:39:26.458Z,8.40
2022-10-04T01:42:30.994Z,6.20
2022-10-04T01:45:48.263Z,14.80
2022-10-04T01:48:44.787Z,12.00
2022-10-04T01:52:05.665Z,10.60
2022-10-04T01:55:09.862Z,13.80
2022-10-04T01:58:19.212Z,6.60
2022-10-04T02:01:31.693Z,11.00
2022-10-04T02:04:32.482Z,9.40
2022-10-04T02:07:30.826Z,13.20
2022-10-04T02:10:28.109Z,13.20
2022-10-04T02:13:28.102Z,12.00
2022-10-04T02:16:26.565Z,11.80
2022-10-04T02:19:28.258Z,12.00
2022-10-04T02:22:28.153Z,11.60
2022-10-04T02:25:27.025Z,12.00
2022-10-04T02:28:25.541Z,11.20
2022-10-04T02:31:41.879Z,10.00
2022-10-04T02:34:39.402Z,11.40
2022-10-04T02:37:36.367Z,11.00
2022-10-04T02:40:40.754Z,12.60
2022-10-04T02:43:47.327Z,10.60
2022-10-04T02:46:51.488Z,10.60
2022-10-04T02:49:53.167Z,6.60
2022-10-04T02:52:53.850Z,9.60
2022-10-04T02:55:51.316Z,8.40
2022-10-04T02:58:48.564Z,12.80
2022-10-04T03:01:51.057Z,11.00
2022-10-04T03:04:48.096Z,12.00
2022-10-04T03:07:45.169Z,11.00
2022-10-04T03:10:42.729Z,10.60
2022-10-04T03:13:41.667Z,7.20
2022-10-04T03:16:41.124Z,13.40
2022-10-04T03:19:38.759Z,12.00
2022-10-04T03:22:36.390Z,9.40
2022-10-04T03:25:45.829Z,7.40
2022-10-04T03:28:43.254Z,11.00
2022-10-04T03:31:45.847Z,14.20
2022-10-04T03:34:51.369Z,10.40
2022-10-04T03:37:48.139Z,12.20
2022-10-04T03:40:51.648Z,11.40
2022-10-04T03:43:50.300Z,9.20
2022-10-04T03:46:47.241Z,11.00
2022-10-04T03:49:48.562Z,7.40
2022-10-04T03:52:56.862Z,12.00
2022-10-04T03:55:53.930Z,12.60
2022-10-04T03:58:51.363Z,8.60
2022-10-04T04:02:01.910Z,11.60
2022-10-04T04:05:19.806Z,11.00
2022-10-04T04:08:32.662Z,6.20
2022-10-04T04:11:31.036Z,9.80
2022-10-04T04:14:28.493Z,7.60
2022-10-04T04:17:32.837Z,11.40
2022-10-04T04:20:32.686Z,10.80
2022-10-04T04:23:34.349Z,8.20
2022-10-04T04:26:48.265Z,13.20
2022-10-04T04:29:54.026Z,9.00
2022-10-04T04:32:52.758Z,7.60
2022-10-04T04:35:55.331Z,7.20
2022-10-04T04:39:10.594Z,9.40
2022-10-04T04:42:19.000Z,10.00
2022-10-04T04:45:22.790Z,8.00
2022-10-04T04:48:20.833Z,12.00
2022-10-04T04:51:23.127Z,10.80
2022-10-04T04:54:23.954Z,13.00
2022-10-04T04:57:21.159Z,12.00
2022-10-04T05:00:20.558Z,7.20
2022-10-04T05:03:18.582Z,11.00
2022-10-04T05:06:27.733Z,10.00
2022-10-04T05:09:28.743Z,10.60
2022-10-04T05:12:27.553Z,9.80
2022-10-04T05:15:24.901Z,12.00
2022-10-04T05:18:33.142Z,7.40
2022-10-04T05:21:31.086Z,11.60
2022-10-04T05:24:29.620Z,11.20
2022-10-04T05:27:32.134Z,11.40
2022-10-04T05:30:36.386Z,10.20
2022-10-04T05:33:52.476Z,11.80
2022-10-04T05:37:06.629Z,12.00
2022-10-04T05:40:10.739Z,10.00
2022-10-04T05:43:52.759Z,11.20
2022-10-04T05:46:50.398Z,7.80
2022-10-04T05:49:48.137Z,10.60
2022-10-04T05:52:45.224Z,10.00
2022-10-04T05:55:58.296Z,13.20
2022-10-04T05:59:26.894Z,12.80
2022-10-04T06:02:29.658Z,7.60
2022-10-04T06:05:52.197Z,12.00
2022-10-04T06:09:07.671Z,12.00
2022-10-04T06:12:20.262Z,10.00
2022-10-04T06:15:36.674Z,12.60
2022-10-04T06:18:58.510Z,11.80
2022-10-04T06:22:17.169Z,6.80
2022-10-04T06:25:26.614Z,12.00
2022-10-04T06:28:25.359Z,12.00
2022-10-04T06:31:57.057Z,12.00
2022-10-04T06:35:09.755Z,11.40
2022-10-04T06:38:29.121Z,15.00
2022-10-04T06:41:36.380Z,15.60
2022-10-04T06:44:49.306Z,14.80
2022-10-04T06:48:06.306Z,14.60
2022-10-04T06:51:21.997Z,17.20
2022-10-04T06:54:54.725Z,6.80
2022-10-04T06:58:17.452Z,14.40
2022-10-04T07:01:20.436Z,16.80
2022-10-04T07:05:03.091Z,22.20
2022-10-04T07:08:06.765Z,18.80
2022-10-04T07:11:30.292Z,19.80
2022-10-04T07:14:31.110Z,17.00
2022-10-04T07:17:36.234Z,24.00
2022-10-04T07:20:34.442Z,18.60
2022-10-04T07:23:34.405Z,17.40
2022-10-04T07:26:37.573Z,17.60
2022-10-04T07:29:41.955Z,22.20
2022-10-04T07:32:44.746Z,16.40
2022-10-04T07:35:47.483Z,24.60
2022-10-04T07:38:47.528Z,22.00
2022-10-04T07:41:57.697Z,23.60
2022-10-04T07:45:00.469Z,23.20
2022-10-04T07:48:25.007Z,21.60
2022-10-04T07:51:34.670Z,22.60
2022-10-04T07:54:39.494Z,18.00
2022-10-04T07:57:47.316Z,20.80
2022-10-04T08:00:49.579Z,22.60
2022-10-04T08:04:12.651Z,18.40
2022-10-04T08:07:26.004Z,18.20
2022-10-04T08:10:37.691Z,18.20
2022-10-04T08:14:11.930Z,22.00
2022-10-04T08:17:41.898Z,22.40
2022-10-04T08:20:57.876Z,13.40
2022-10-04T08:24:12.210Z,17.80
2022-10-04T08:27:38.559Z,17.00
2022-10-04T08:31:02.126Z,13.80
2022-10-04T08:33:59.231Z,18.00
2022-10-04T08:37:10.164Z,12.20
2022-10-04T08:40:13.788Z,14.60
2022-10-04T08:43:19.818Z,15.60
2022-10-04T08:46:32.518Z,12.60
2022-10-04T08:49:32.217Z,12.80
2022-10-04T08:53:11.001Z,15.60
2022-10-04T08:56:45.873Z,15.80
2022-10-04T09:00:08.257Z,12.80
2022-10-04T09:03:35.553Z,12.80
2022-10-04T09:06:43.937Z,12.00
2022-10-04T09:10:17.579Z,11.80
2022-10-04T09:13:30.995Z,9.20
2022-10-04T09:16:47.871Z,10.20
2022-10-04T09:20:38.712Z,12.60
2022-10-04T09:24:05.679Z,9.40
2022-10-04T09:27:12.111Z,11.40
2022-10-04T09:31:04.511Z,8.80
2022-10-04T09:34:07.419Z,7.00
2022-10-04T09:37:32.817Z,4.00
2022-10-04T09:40:36.532Z,16.50
2022-10-04T09:44:17.578Z,28.25
2022-10-04T09:47:37.942Z,7.00
2022-10-04T09:50:39.865Z,8.67
2022-10-04T09:53:58.655Z,8.00
2022-10-04T09:57:08.415Z,28.50
2022-10-04T10:00:25.056Z,6.50
2022-10-04T10:03:31.772Z,31.00
2022-10-04T10:06:52.347Z,34.50
2022-10-04T10:10:47.046Z,35.50
2022-10-04T10:14:02.693Z,34.75
2022-10-04T10:17:24.642Z,34.00
2022-10-04T10:20:36.400Z,28.25
2022-10-04T10:23:44.071Z,42.50
2022-10-04T10:26:56.316Z,38.00
2022-10-04T10:30:12.617Z,39.25
2022-10-04T10:33:40.605Z,34.50
2022-10-04T10:37:09.997Z,12.50
2022-10-04T10:40:29.026Z,43.25
2022-10-04T10:43:37.008Z,42.75
2022-10-04T10:46:47.015Z,40.25
2022-10-04T10:49:59.290Z,38.75
2022-10-04T10:53:36.077Z,33.75
2022-10-04T10:56:45.109Z,19.75
2022-10-04T11:00:06.540Z,38.50
2022-10-04T11:03:41.643Z,32.75
2022-10-04T11:06:45.165Z,24.25
2022-10-04T11:09:46.881Z,21.75
2022-10-04T11:13:12.008Z,20.00
2022-10-04T11:16:41.460Z,39.25
2022-10-04T11:20:02.913Z,18.50
2022-10-04T11:23:21.900Z,27.50
2022-10-04T11:26:24.330Z,44.50
2022-10-04T11:29:28.493Z,41.00
2022-10-04T11:32:40.819Z,39.75
2022-10-04T11:36:16.533Z,37.75
2022-10-04T11:39:45.083Z,37.25
2022-10-04T11:43:04.272Z,39.75
2022-10-04T11:46:23.426Z,36.25
2022-10-04T11:49:38.943Z,45.50
2022-10-04T11:52:36.993Z,24.50
2022-10-04T11:56:10.558Z,33.00
2022-10-04T11:59:28.249Z,40.25
2022-10-04T12:03:02.841Z,43.00
2022-10-04T12:06:08.824Z,44.50
2022-10-04T12:09:11.234Z,33.50
2022-10-04T12:12:39.431Z,45.25
2022-10-04T12:15:52.187Z,9.00
2022-10-04T12:19:27.402Z,36.50
2022-10-04T12:23:00.528Z,35.00
2022-10-04T12:26:25.689Z,44.00
2022-10-04T12:29:42.257Z,35.50
2022-10-04T12:32:42.418Z,40.00
2022-10-04T12:36:08.717Z,15.00
2022-10-04T12:39:28.367Z,43.25
2022-10-04T12:42:45.585Z,39.25
2022-10-04T12:45:56.465Z,41.00
2022-10-04T12:48:56.529Z,40.25
2022-10-04T12:52:06.331Z,43.00
2022-10-04T12:55:38.091Z,38.75
2022-10-04T12:59:09.605Z,43.25
2022-10-04T13:02:33.819Z,41.25
2022-10-04T13:05:52.141Z,43.25
2022-10-04T13:09:05.972Z,38.50
2022-10-04T13:12:12.222Z,40.25
2022-10-04T13:15:13.773Z,42.00
2022-10-04T13:18:29.303Z,33.50
2022-10-04T13:21:45.693Z,39.25
2022-10-04T13:25:01.009Z,37.00
2022-10-04T13:28:21.587Z,38.50
2022-10-04T13:31:26.147Z,36.25
2022-10-04T13:34:36.469Z,37.75
2022-10-04T13:37:50.326Z,42.00
2022-10-04T13:40:47.742Z,36.00
2022-10-04T13:44:09.426Z,39.25
2022-10-04T13:47:54.647Z,43.50
2022-10-04T13:51:09.780Z,34.00
2022-10-04T13:54:34.751Z,39.00
2022-10-04T13:58:05.291Z,36.00
2022-10-04T14:01:33.949Z,41.75
2022-10-04T14:04:42.655Z,36.00
2022-10-04T14:08:05.174Z,40.25
2022-10-04T14:11:31.577Z,41.50
2022-10-04T14:14:33.296Z,39.00
2022-10-04T14:17:42.078Z,36.00
2022-10-04T14:20:48.183Z,36.00
2022-10-04T14:24:13.751Z,38.25
2022-10-04T14:27:32.489Z,34.25
2022-10-04T14:30:54.337Z,39.50
2022-10-04T14:34:03.931Z,42.00
2022-10-04T14:37:12.310Z,34.50
2022-10-04T14:40:20.832Z,35.25
2022-10-04T14:43:48.992Z,36.25
2022-10-04T14:47:13.760Z,20.50
2022-10-04T14:50:44.501Z,39.25
2022-10-04T14:54:07.665Z,32.75
2022-10-04T14:57:12.595Z,39.75
2022-10-04T15:00:17.175Z,40.00
2022-10-04T15:03:19.583Z,30.50
2022-10-04T15:06:21.238Z,38.75
2022-10-04T15:09:49.788Z,36.00
2022-10-04T15:13:11.572Z,42.25
2022-10-04T15:16:40.460Z,41.00
2022-10-04T15:19:44.519Z,45.00
2022-10-04T15:22:43.226Z,43.00
2022-10-04T15:25:44.318Z,34.25
2022-10-04T15:28:54.288Z,33.00
2022-10-04T15:32:15.950Z,38.00
2022-10-04T15:35:31.338Z,42.75
2022-10-04T15:38:47.022Z,36.50
2022-10-04T15:41:52.808Z,37.50
2022-10-04T15:45:16.982Z,41.25
2022-10-04T15:48:40.203Z,40.00
2022-10-04T15:51:42.543Z,40.75
2022-10-04T15:55:08.093Z,35.75
2022-10-04T15:58:22.622Z,35.00
2022-10-04T16:01:39.052Z,36.00
2022-10-04T16:05:00.921Z,36.75
2022-10-04T16:08:09.577Z,32.00
2022-10-04T16:11:12.807Z,37.25
2022-10-04T16:14:31.898Z,37.75
2022-10-04T16:17:52.390Z,34.25
2022-10-04T16:21:15.300Z,35.50
2022-10-04T16:24:22.155Z,35.75
2022-10-04T16:27:53.396Z,37.00
2022-10-04T16:31:15.422Z,39.25
2022-10-04T16:34:41.673Z,38.75
2022-10-04T16:38:05.253Z,43.00
2022-10-04T16:41:11.479Z,38.75
2022-10-04T16:44:12.454Z,35.25
2022-10-04T16:47:29.283Z,38.50
2022-10-04T16:50:52.278Z,36.00
2022-10-04T16:54:28.497Z,36.00
2022-10-04T16:57:27.541Z,38.50
2022-10-04T17:00:36.246Z,41.25
2022-10-04T17:03:35.397Z,37.00
2022-10-04T17:06:43.618Z,40.75
2022-10-04T17:09:53.972Z,36.25
2022-10-04T17:12:56.340Z,36.00
2022-10-04T17:16:09.222Z,38.00
2022-10-04T17:19:22.575Z,39.00
2022-10-04T17:22:25.808Z,36.75
2022-10-04T17:25:57.211Z,37.67
2022-10-04T17:29:16.869Z,37.00
2022-10-04T17:32:44.438Z,37.25
2022-10-04T17:36:09.472Z,43.00
2022-10-04T17:39:33.821Z,40.67
2022-10-04T17:42:42.358Z,37.00
2022-10-04T17:45:52.131Z,40.00
2022-10-04T17:49:13.661Z,37.67
2022-10-04T17:52:52.777Z,40.33
2022-10-04T17:55:53.095Z,41.00
2022-10-04T17:58:54.414Z,43.00
2022-10-04T18:01:55.635Z,39.33
2022-10-04T18:05:00.847Z,33.25
2022-10-04T18:08:02.359Z,36.67
2022-10-04T18:11:03.867Z,38.00
2022-10-04T18:14:06.585Z,37.00
2022-10-04T18:17:09.496Z,34.00
2022-10-04T18:20:23.639Z,24.75
2022-10-04T18:23:54.268Z,25.00
2022-10-04T18:26:58.574Z,18.25
2022-10-04T18:30:00.593Z,16.00
2022-10-04T18:32:58.028Z,13.00
2022-10-04T18:36:01.213Z,9.50
2022-10-04T18:39:13.430Z,7.00
2022-10-04T18:42:27.607Z,5.25
2022-10-04T18:45:29.240Z,6.25
2022-10-04T18:48:51.843Z,5.00
2022-10-04T18:51:52.071Z,8.00
2022-10-04T18:55:33.642Z,4.33
2022-10-04T18:59:25.965Z,9.75
2022-10-04T19:02:35.119Z,8.00
2022-10-04T19:05:54.255Z,12.50
2022-10-04T19:09:31.638Z,8.75
2022-10-04T19:13:00.858Z,18.25
2022-10-04T19:16:16.843Z,16.25
2022-10-04T19:19:29.897Z,21.75
2022-10-04T19:22:32.797Z,19.75
2022-10-04T19:26:26.316Z,29.75
2022-10-04T19:29:29.377Z,11.75
2022-10-04T19:32:34.451Z,17.00
2022-10-04T19:35:47.045Z,18.00
2022-10-04T19:38:55.847Z,9.75
2022-10-04T19:42:10.524Z,8.75
2022-10-04T19:45:50.139Z,15.00
2022-10-04T19:48:51.025Z,6.75
2022-10-04T19:51:51.271Z,7.33
2022-10-04T19:54:50.892Z,5.67
2022-10-04T19:58:02.570Z,6.33
2022-10-04T20:01:00.453Z,7.33
2022-10-04T20:04:16.459Z,8.33
2022-10-04T20:07:14.620Z,8.00
2022-10-04T20:10:36.135Z,20.25
2022-10-04T20:13:32.948Z,12.25
2022-10-04T20:16:49.145Z,10.00
2022-10-04T20:19:47.295Z,11.50
2022-10-04T20:22:49.851Z,7.50
2022-10-04T20:25:49.573Z,9.50
2022-10-04T20:28:46.855Z,9.75
2022-10-04T20:31:53.694Z,7.00
2022-10-04T20:34:53.615Z,8.25
2022-10-04T20:38:31.267Z,6.75
2022-10-04T20:41:52.514Z,9.00
2022-10-04T20:44:57.376Z,5.20
2022-10-04T20:47:57.625Z,8.00
2022-10-04T20:50:55.296Z,7.00
2022-10-04T20:53:52.467Z,8.40
2022-10-04T20:56:50.193Z,4.00
2022-10-04T20:59:47.155Z,8.20
2022-10-04T21:02:44.166Z,6.00
2022-10-04T21:05:41.196Z,8.50
2022-10-04T21:08:38.369Z,5.20
2022-10-04T21:11:49.908Z,9.50
2022-10-04T21:15:07.110Z,7.00
2022-10-04T21:18:04.096Z,8.67
2022-10-04T21:21:01.107Z,8.00
2022-10-04T21:23:57.961Z,8.00
2022-10-04T21:26:56.907Z,6.00
2022-10-04T21:29:53.930Z,4.00
2022-10-04T21:32:51.634Z,10.00
2022-10-04T21:35:52.557Z,10.50
2022-10-04T21:38:50.355Z,5.00
2022-10-04T21:41:47.413Z,9.33
2022-10-04T21:44:44.089Z,9.00
2022-10-04T21:47:40.918Z,6.00
2022-10-04T21:50:38.589Z,9.00
2022-10-04T21:53:36.271Z,8.25
2022-10-04T21:56:33.254Z,9.00
2022-10-04T21:59:30.398Z,5.75
2022-10-04T22:02:27.313Z,6.33
2022-10-04T22:05:24.566Z,7.00
2022-10-04T22:08:22.492Z,11.25
2022-10-04T22:11:20.228Z,8.25
2022-10-04T22:14:17.271Z,6.75
2022-10-04T22:17:13.967Z,7.33
2022-10-04T22:20:11.423Z,5.75
2022-10-04T22:23:17.032Z,4.00
2022-10-04T22:26:18.436Z,10.25
2022-10-04T22:29:17.521Z,12.75
2022-10-04T22:32:26.194Z,9.00
2022-10-04T22:35:23.440Z,7.80
2022-10-04T22:38:20.022Z,9.20
2022-10-04T22:41:18.827Z,11.20
2022-10-04T22:44:29.198Z,10.00
2022-10-04T22:47:26.129Z,10.00
2022-10-04T22:50:31.835Z,7.60
2022-10-04T22:53:29.013Z,7.20
2022-10-04T22:56:25.876Z,8.00
2022-10-04T22:59:31.179Z,9.60
2022-10-04T23:02:29.809Z,9.40
2022-10-04T23:05:27.099Z,7.00
2022-10-04T23:08:24.338Z,8.40
2022-10-04T23:11:21.357Z,8.00
2022-10-04T23:14:18.332Z,5.80
2022-10-04T23:17:17.823Z,8.20
2022-10-04T23:20:17.315Z,9.00
2022-10-04T23:23:21.248Z,11.40
2022-10-04T23:26:24.836Z,8.00
2022-10-04T23:29:24.245Z,8.40
2022-10-04T23:32:21.388Z,9.40
2022-10-04T23:35:23.597Z,9.00
2022-10-04T23:38:21.296Z,9.80
2022-10-04T23:41:18.273Z,11.20
2022-10-04T23:44:15.964Z,8.20
2022-10-04T23:47:16.101Z,11.00
2022-10-04T23:50:36.264Z,8.60
2022-10-04T23:53:33.130Z,10.00
2022-10-04T23:56:30.349Z,11.00
2022-10-04T23:59:27.451Z,13.80
